Time;durP1;ratioP1;P1;durP2;ratioP2;P2;SDS_P1;SDS_P2;PMS_P1;PMS_P2;Temp;Humidity;BMP_temperature;BMP_pressure;BME280_temperature;BME280_humidity;BME280_pressure;Samples;Min_cycle;Max_cycle;Signal;HPM_P1;HPM_P2
2023/03/31 04:02:11;;;;;;;14.13;4.55;;;9.50;99.90;;;;;;5071598;23;20231;-68
2023/03/31 04:04:37;;;;;;;4.63;2.63;;;9.60;99.90;;;;;;4884540;29;20207;-68
2023/03/31 04:07:04;;;;;;;2.40;1.85;;;9.60;99.90;;;;;;4887044;29;20232;-68
2023/03/31 04:09:31;;;;;;;2.83;2.35;;;9.60;99.90;;;;;;4883225;29;20243;-68
2023/03/31 04:11:57;;;;;;;6.93;3.05;;;9.70;99.90;;;;;;4882671;29;20246;-68
2023/03/31 04:14:24;;;;;;;3.92;3.60;;;9.70;99.90;;;;;;4874373;29;20219;-68
2023/03/31 04:16:51;;;;;;;5.20;2.70;;;9.70;99.90;;;;;;4891191;29;20216;-68
2023/03/31 04:19:20;;;;;;;2.70;2.50;;;9.80;99.90;;;;;;4886768;29;20502;-68
2023/03/31 04:21:49;;;;;;;8.80;3.60;;;9.80;99.90;;;;;;4873055;29;20326;-68
2023/03/31 04:24:20;;;;;;;4.28;3.92;;;9.80;99.90;;;;;;4865763;29;20216;-69
2023/03/31 04:26:49;;;;;;;6.93;3.70;;;9.80;99.90;;;;;;4870294;29;20221;-68
2023/03/31 04:29:19;;;;;;;2.88;2.40;;;9.80;99.90;;;;;;4876661;29;20212;-68
2023/03/31 04:31:46;;;;;;;2.95;1.65;;;9.90;99.90;;;;;;4879466;29;20228;-68
2023/03/31 04:34:14;;;;;;;4.32;2.25;;;9.90;99.90;;;;;;4882315;29;20204;-69
2023/03/31 04:36:45;;;;;;;2.67;2.08;;;9.90;99.90;;;;;;4882395;29;20215;-69
2023/03/31 04:39:13;;;;;;;3.60;2.75;;;9.90;99.90;;;;;;4866035;29;20219;-69
2023/03/31 04:41:40;;;;;;;3.30;3.00;;;9.90;99.90;;;;;;4881217;29;20567;-68
2023/03/31 04:44:06;;;;;;;1.75;1.75;;;9.90;99.90;;;;;;4880183;29;20219;-68
2023/03/31 04:46:35;;;;;;;2.38;2.17;;;10.00;99.90;;;;;;4887003;29;20218;-68
2023/03/31 04:49:01;;;;;;;2.25;1.70;;;10.00;99.90;;;;;;4887203;29;20208;-68
2023/03/31 04:51:28;;;;;;;2.40;2.20;;;10.10;99.90;;;;;;4886098;29;20697;-68
2023/03/31 04:53:56;;;;;;;10.73;3.38;;;10.10;99.90;;;;;;4888042;29;20215;-68
2023/03/31 04:56:23;;;;;;;2.97;2.75;;;10.10;99.90;;;;;;4876692;29;20566;-69
2023/03/31 04:58:50;;;;;;;3.90;2.47;;;10.10;99.90;;;;;;4872792;29;20204;-68
2023/03/31 05:01:17;;;;;;;2.22;2.03;;;10.10;99.90;;;;;;4876654;29;20243;-67
2023/03/31 05:03:44;;;;;;;2.40;2.30;;;10.10;99.90;;;;;;4885028;29;20238;-68
2023/03/31 05:06:11;;;;;;;2.95;1.77;;;10.20;99.90;;;;;;4882727;29;20212;-68
2023/03/31 05:08:37;;;;;;;3.85;3.13;;;10.10;99.90;;;;;;4879911;29;20211;-68
2023/03/31 05:11:06;;;;;;;6.45;3.03;;;10.10;99.90;;;;;;4879884;29;20680;-68
2023/03/31 05:13:33;;;;;;;9.75;2.17;;;10.10;99.90;;;;;;4884135;29;20217;-68
2023/03/31 05:16:06;;;;;;;2.17;2.08;;;10.20;99.90;;;;;;4879449;29;20321;-68
2023/03/31 05:18:33;;;;;;;2.30;2.20;;;10.10;99.90;;;;;;4882817;29;20211;-67
2023/03/31 05:21:09;;;;;;;11.18;1.90;;;10.10;99.90;;;;;;4878632;29;20239;-68
2023/03/31 05:23:36;;;;;;;6.35;3.92;;;10.10;99.90;;;;;;4870415;29;20216;-68
2023/03/31 05:26:02;;;;;;;2.08;1.92;;;10.10;99.90;;;;;;4880115;29;20619;-68
2023/03/31 05:28:30;;;;;;;4.40;2.58;;;10.10;99.90;;;;;;4874998;29;20212;-68
2023/03/31 05:31:00;;;;;;;6.22;3.80;;;10.10;99.90;;;;;;4877773;29;20228;-68
2023/03/31 05:33:27;;;;;;;4.40;2.47;;;10.10;99.90;;;;;;4882157;29;20211;-68
2023/03/31 05:35:54;;;;;;;2.80;2.05;;;10.10;99.90;;;;;;4895450;29;20282;-68
2023/03/31 05:38:21;;;;;;;3.90;2.67;;;10.10;99.90;;;;;;4873351;29;20219;-69
2023/03/31 05:40:48;;;;;;;2.03;1.92;;;10.10;99.90;;;;;;4882862;29;20268;-68
2023/03/31 05:43:15;;;;;;;2.22;2.13;;;10.10;99.90;;;;;;4881070;29;20255;-68
2023/03/31 05:45:44;;;;;;;0.90;0.90;;;10.10;99.90;;;;;;4878142;29;20215;-68
2023/03/31 05:48:10;;;;;;;10.50;2.50;;;10.10;99.90;;;;;;4871924;29;20294;-68
2023/03/31 05:50:37;;;;;;;2.78;2.65;;;10.10;99.90;;;;;;4878297;29;20329;-69
2023/03/31 05:53:04;;;;;;;2.80;2.53;;;10.10;99.90;;;;;;4879902;29;20311;-70
2023/03/31 05:55:32;;;;;;;3.03;1.75;;;10.10;99.90;;;;;;4871950;29;20246;-69
2023/03/31 05:57:59;;;;;;;2.72;1.83;;;10.10;99.90;;;;;;4880226;29;20219;-68
2023/03/31 06:00:26;;;;;;;1.70;1.08;;;10.20;99.90;;;;;;4865877;29;20344;-69
2023/03/31 06:02:54;;;;;;;1.50;1.45;;;10.20;99.90;;;;;;4880215;29;20322;-69
2023/03/31 06:05:24;;;;;;;1.85;1.85;;;10.20;99.90;;;;;;4886314;29;20216;-69
2023/03/31 06:07:51;;;;;;;8.18;2.45;;;10.30;99.90;;;;;;4874711;29;20308;-69
2023/03/31 06:10:18;;;;;;;2.78;1.50;;;10.30;99.90;;;;;;4873657;29;20216;-68
2023/03/31 06:12:44;;;;;;;6.53;2.17;;;10.30;99.90;;;;;;4878692;29;20208;-68
2023/03/31 06:15:11;;;;;;;1.27;0.98;;;10.40;99.90;;;;;;4877285;29;20215;-68
2023/03/31 06:17:38;;;;;;;6.63;2.38;;;10.40;99.90;;;;;;4881455;29;20594;-69
2023/03/31 06:20:07;;;;;;;0.73;0.73;;;10.40;99.90;;;;;;4873180;29;20637;-68
2023/03/31 06:22:34;;;;;;;1.38;1.38;;;10.50;99.90;;;;;;4884106;29;20690;-69
2023/03/31 06:25:01;;;;;;;0.75;0.75;;;10.50;99.90;;;;;;4883831;29;20215;-68
2023/03/31 06:27:27;;;;;;;2.97;1.92;;;10.50;99.90;;;;;;4883718;29;20211;-69
2023/03/31 06:29:54;;;;;;;4.88;1.75;;;10.60;99.90;;;;;;4869707;29;20212;-68
2023/03/31 06:32:21;;;;;;;1.55;1.55;;;10.60;99.90;;;;;;4874107;29;20228;-70
2023/03/31 06:34:48;;;;;;;1.30;1.20;;;10.60;99.90;;;;;;4878390;29;20523;-68
2023/03/31 06:37:16;;;;;;;2.35;2.15;;;10.70;99.90;;;;;;4875558;29;20223;-69
2023/03/31 06:39:43;;;;;;;2.40;1.40;;;10.70;99.90;;;;;;4872307;29;20417;-69
2023/03/31 06:42:10;;;;;;;2.25;1.38;;;10.80;99.90;;;;;;4888597;29;20305;-68
2023/03/31 06:44:37;;;;;;;8.43;1.77;;;10.80;99.90;;;;;;4879407;29;20337;-69
2023/03/31 06:47:03;;;;;;;2.42;1.42;;;10.80;99.90;;;;;;4880961;29;20222;-69
2023/03/31 06:49:30;;;;;;;1.40;1.40;;;10.90;99.90;;;;;;4875010;29;20684;-68
2023/03/31 06:51:57;;;;;;;4.68;2.33;;;10.90;99.90;;;;;;4871315;29;20257;-70
2023/03/31 06:54:25;;;;;;;2.38;2.28;;;10.90;99.90;;;;;;4883316;29;20271;-71
2023/03/31 06:56:51;;;;;;;5.15;2.50;;;11.10;99.90;;;;;;4867633;29;20217;-71
2023/03/31 06:59:18;;;;;;;2.95;1.27;;;11.20;99.90;;;;;;4879243;29;20219;-70
2023/03/31 07:01:47;;;;;;;1.30;1.30;;;11.30;99.90;;;;;;4880435;29;20569;-70
2023/03/31 07:04:13;;;;;;;1.60;1.50;;;11.40;99.90;;;;;;4881051;29;20555;-70
2023/03/31 07:06:40;;;;;;;2.20;1.30;;;11.40;99.90;;;;;;4884167;29;20475;-69
2023/03/31 07:09:07;;;;;;;17.10;1.20;;;11.50;99.90;;;;;;4875779;29;20847;-69
2023/03/31 07:11:35;;;;;;;2.23;0.80;;;11.40;99.90;;;;;;4879306;29;20503;-69
2023/03/31 07:14:02;;;;;;;2.00;1.30;;;11.40;99.90;;;;;;4883236;29;20471;-69
2023/03/31 07:16:30;;;;;;;3.17;0.70;;;11.50;99.90;;;;;;4872082;29;20473;-70
2023/03/31 07:18:58;;;;;;;1.50;1.20;;;11.50;99.90;;;;;;4865359;29;20481;-70
2023/03/31 07:21:25;;;;;;;0.80;0.80;;;11.50;99.90;;;;;;4868561;29;20496;-70
2023/03/31 07:23:52;;;;;;;2.20;1.57;;;11.40;99.90;;;;;;4880514;29;20208;-70
2023/03/31 07:26:19;;;;;;;1.17;1.07;;;11.40;99.90;;;;;;4881952;29;20499;-70
2023/03/31 07:28:47;;;;;;;2.25;1.65;;;11.40;99.90;;;;;;4891197;29;20546;-70
2023/03/31 07:31:14;;;;;;;1.23;0.40;;;11.30;99.90;;;;;;4876444;29;20236;-69
2023/03/31 07:33:41;;;;;;;2.10;1.43;;;11.30;99.90;;;;;;4881440;29;20480;-69
2023/03/31 07:36:09;;;;;;;3.95;0.95;;;11.30;99.90;;;;;;4882379;29;20983;-69
2023/03/31 07:38:35;;;;;;;4.25;1.30;;;11.30;99.90;;;;;;4877030;29;20208;-68
2023/03/31 07:41:02;;;;;;;2.50;1.17;;;11.30;99.90;;;;;;4869443;29;20235;-70
2023/03/31 07:43:29;;;;;;;1.00;1.00;;;11.30;99.90;;;;;;4862492;29;20213;-71
2023/03/31 07:45:57;;;;;;;0.97;0.97;;;11.30;99.90;;;;;;4871332;29;20220;-71
2023/03/31 07:48:23;;;;;;;0.63;0.63;;;11.30;99.90;;;;;;4881107;29;20481;-71
2023/03/31 07:50:51;;;;;;;2.97;0.73;;;11.30;99.90;;;;;;4864738;29;20319;-70
2023/03/31 07:53:17;;;;;;;0.98;0.93;;;11.20;99.90;;;;;;4873642;29;20212;-70
2023/03/31 07:55:44;;;;;;;1.13;1.10;;;11.20;99.90;;;;;;4876538;29;20226;-70
2023/03/31 07:58:11;;;;;;;1.33;1.23;;;11.20;99.90;;;;;;4883606;29;20215;-70
2023/03/31 08:00:38;;;;;;;1.13;1.08;;;11.20;99.90;;;;;;4882462;29;20613;-70
2023/03/31 08:03:06;;;;;;;1.05;0.77;;;11.20;99.90;;;;;;4858617;29;20232;-70
2023/03/31 08:05:33;;;;;;;1.45;1.00;;;11.10;99.90;;;;;;4872630;29;20211;-70
2023/03/31 08:08:00;;;;;;;1.95;0.75;;;11.00;99.90;;;;;;4884151;29;20534;-70
2023/03/31 08:10:27;;;;;;;0.43;0.35;;;11.00;99.90;;;;;;4861484;29;20303;-70
2023/03/31 08:12:55;;;;;;;5.20;0.98;;;11.00;99.90;;;;;;4878733;29;20212;-70
2023/03/31 08:15:22;;;;;;;3.72;0.90;;;11.00;99.90;;;;;;4862119;29;20220;-70
2023/03/31 08:17:49;;;;;;;0.65;0.65;;;11.00;99.90;;;;;;4868838;29;20213;-69
2023/03/31 08:20:17;;;;;;;0.43;0.43;;;11.00;99.90;;;;;;4891247;29;20644;-70
2023/03/31 08:22:44;;;;;;;0.25;0.25;;;11.10;99.90;;;;;;4877319;29;20228;-70
2023/03/31 08:25:11;;;;;;;1.10;0.98;;;11.10;99.90;;;;;;4876709;29;20579;-69
2023/03/31 08:27:40;;;;;;;0.60;0.60;;;11.10;99.90;;;;;;4867970;29;20216;-69
2023/03/31 08:30:08;;;;;;;0.57;0.57;;;11.10;99.90;;;;;;4878882;29;20247;-68
2023/03/31 08:32:35;;;;;;;0.40;0.40;;;11.10;99.90;;;;;;4887789;29;20705;-69
2023/03/31 08:35:02;;;;;;;1.05;0.88;;;11.00;99.90;;;;;;4872027;29;20211;-69
2023/03/31 08:37:31;;;;;;;0.57;0.57;;;11.00;99.90;;;;;;4884370;29;20244;-69
2023/03/31 08:39:57;;;;;;;1.20;1.20;;;11.00;99.90;;;;;;4885850;29;20281;-68
2023/03/31 08:42:35;;;;;;;4.20;1.48;;;11.10;99.90;;;;;;4888712;29;20670;-69
2023/03/31 08:45:06;;;;;;;0.70;0.70;;;11.10;99.90;;;;;;4877169;29;20212;-67
2023/03/31 08:47:35;;;;;;;2.80;1.13;;;11.10;99.90;;;;;;4875267;29;20643;-70
2023/03/31 08:50:07;;;;;;;2.08;1.70;;;11.10;99.90;;;;;;4866901;29;20216;-69
2023/03/31 08:52:42;;;;;;;1.35;1.25;;;11.10;99.90;;;;;;4871370;29;20229;-70
2023/03/31 08:55:17;;;;;;;6.07;0.90;;;11.10;99.90;;;;;;4869248;29;20214;-70
2023/03/31 08:57:51;;;;;;;0.93;0.93;;;11.10;99.90;;;;;;4886064;29;20250;-70
2023/03/31 09:00:19;;;;;;;1.95;0.68;;;11.10;99.90;;;;;;4865272;29;20206;-67
2023/03/31 09:02:55;;;;;;;0.77;0.77;;;11.10;99.90;;;;;;4866040;29;20227;-67
2023/03/31 09:05:46;;;;;;;16.00;0.95;;;11.10;99.90;;;;;;4875757;29;20202;-68
2023/03/31 09:08:26;;;;;;;0.47;0.47;;;11.10;99.90;;;;;;4861758;29;20219;-69
2023/03/31 09:10:57;;;;;;;0.50;0.50;;;11.10;99.90;;;;;;4874654;29;20262;-70
2023/03/31 09:13:43;;;;;;;0.57;0.57;;;11.10;99.90;;;;;;4869554;29;20219;-68
2023/03/31 09:16:14;;;;;;;0.63;0.63;;;11.10;99.90;;;;;;4869292;29;20234;-70
2023/03/31 09:18:45;;;;;;;0.63;0.30;;;11.10;99.90;;;;;;4870118;29;20204;-68
2023/03/31 09:21:17;;;;;;;0.63;0.63;;;11.00;99.90;;;;;;4873354;29;20715;-68
2023/03/31 09:23:49;;;;;;;0.40;0.40;;;11.00;99.90;;;;;;4874310;29;20212;-69
2023/03/31 09:26:23;;;;;;;0.73;0.52;;;11.10;99.90;;;;;;4872657;29;20589;-67
2023/03/31 09:28:53;;;;;;;0.55;0.55;;;11.10;99.90;;;;;;4887717;29;20630;-67
2023/03/31 09:31:22;;;;;;;0.70;0.70;;;11.10;99.90;;;;;;4872498;29;20321;-68
2023/03/31 09:33:52;;;;;;;0.68;0.68;;;11.10;99.90;;;;;;4873269;29;20675;-68
2023/03/31 09:36:22;;;;;;;0.85;0.85;;;11.20;99.90;;;;;;4877809;29;20207;-69
2023/03/31 09:38:51;;;;;;;1.63;1.35;;;11.30;99.90;;;;;;4872435;29;20231;-70
2023/03/31 09:41:18;;;;;;;0.75;0.75;;;11.30;99.90;;;;;;4890534;29;20317;-70
2023/03/31 09:43:46;;;;;;;0.80;0.80;;;11.30;99.90;;;;;;4877513;29;20705;-70
2023/03/31 09:46:18;;;;;;;1.38;1.27;;;11.40;99.90;;;;;;4874539;29;20207;-70
2023/03/31 09:48:53;;;;;;;2.33;2.22;;;11.40;99.90;;;;;;4879189;29;20240;-70
2023/03/31 09:51:26;;;;;;;3.53;0.60;;;11.40;99.90;;;;;;4867930;29;20238;-70
2023/03/31 09:53:58;;;;;;;9.97;2.20;;;11.50;99.90;;;;;;4878386;29;20208;-71
2023/03/31 09:56:47;;;;;;;1.23;0.93;;;11.50;99.90;;;;;;4878789;29;20464;-69
2023/03/31 09:59:16;;;;;;;0.70;0.70;;;11.50;99.90;;;;;;4889490;29;20475;-69
2023/03/31 10:01:45;;;;;;;0.73;0.73;;;11.50;99.90;;;;;;4872404;29;20280;-72
2023/03/31 10:04:18;;;;;;;1.02;1.02;;;11.50;99.90;;;;;;4870749;29;20529;-70
2023/03/31 10:06:46;;;;;;;0.35;0.35;;;11.50;99.90;;;;;;4866798;29;20243;-70
2023/03/31 10:09:15;;;;;;;2.58;1.02;;;11.50;99.90;;;;;;4868793;29;20216;-70
2023/03/31 10:11:54;;;;;;;0.50;0.50;;;11.50;99.90;;;;;;4871735;29;20232;-69
2023/03/31 10:14:26;;;;;;;1.27;1.25;;;11.60;99.90;;;;;;4873797;29;20481;-70
2023/03/31 10:16:55;;;;;;;0.93;0.93;;;11.70;99.90;;;;;;4876827;29;20281;-69
2023/03/31 10:19:23;;;;;;;1.30;0.80;;;11.80;99.90;;;;;;4878804;29;20473;-66
2023/03/31 10:21:57;;;;;;;0.73;0.73;;;11.90;99.90;;;;;;4918419;23;20498;-70
2023/03/31 10:24:26;;;;;;;0.70;0.70;;;12.00;99.90;;;;;;4913530;29;20475;-70
2023/03/31 10:26:55;;;;;;;0.60;0.60;;;12.00;99.90;;;;;;4915855;29;20982;-70
2023/03/31 10:29:29;;;;;;;7.30;1.20;;;12.00;99.90;;;;;;4908479;29;20481;-70
2023/03/31 10:31:56;;;;;;;0.40;0.40;;;12.00;99.90;;;;;;4907675;29;21053;-70
2023/03/31 10:34:24;;;;;;;0.80;0.80;;;11.90;99.90;;;;;;4908136;29;20561;-70
2023/03/31 10:36:52;;;;;;;1.43;1.33;;;11.80;99.90;;;;;;4906982;29;21021;-70
2023/03/31 10:39:20;;;;;;;1.47;1.37;;;11.80;99.90;;;;;;4910819;29;20555;-70
2023/03/31 10:41:52;;;;;;;1.10;0.97;;;11.70;99.90;;;;;;4912191;29;20577;-70
2023/03/31 10:44:34;;;;;;;1.23;1.10;;;11.70;99.90;;;;;;4913951;29;20484;-69
2023/03/31 10:47:05;;;;;;;0.30;0.30;;;11.70;99.90;;;;;;4909885;29;20478;-70
2023/03/31 10:49:38;;;;;;;0.50;0.50;;;11.80;99.90;;;;;;4910953;29;20488;-68
2023/03/31 10:52:17;;;;;;;3.00;1.23;;;11.70;99.90;;;;;;4906000;29;20573;-71
2023/03/31 10:54:48;;;;;;;0.70;0.70;;;11.70;99.90;;;;;;4913858;29;20462;-69
2023/03/31 10:57:18;;;;;;;1.60;0.90;;;11.50;99.90;;;;;;4915310;29;20522;-70
2023/03/31 11:00:04;;;;;;;0.40;0.40;;;11.50;99.90;;;;;;4914117;29;20218;-68
2023/03/31 11:03:11;;;;;;;0.40;0.40;;;11.50;99.90;;;;;;4915097;29;20501;-68
2023/03/31 11:05:43;;;;;;;0.47;0.47;;;11.40;99.90;;;;;;4914301;29;20213;-69
2023/03/31 11:08:31;;;;;;;0.87;0.87;;;11.40;99.90;;;;;;4907170;29;20224;-67
2023/03/31 11:11:12;;;;;;;1.00;1.00;;;11.40;99.90;;;;;;4913918;29;20905;-68
2023/03/31 11:13:48;;;;;;;2.58;0.90;;;11.40;99.90;;;;;;4914364;29;20194;-68
2023/03/31 11:16:20;;;;;;;0.93;0.93;;;11.40;99.90;;;;;;4910761;29;20211;-68
2023/03/31 11:19:17;;;;;;;0.90;0.90;;;11.40;99.90;;;;;;4915593;29;20215;-69
2023/03/31 11:21:55;;;;;;;1.48;0.85;;;11.40;99.90;;;;;;4916045;29;20257;-69
2023/03/31 11:24:38;;;;;;;0.93;0.90;;;11.40;99.90;;;;;;4917214;29;20195;-69
2023/03/31 11:27:17;;;;;;;1.52;1.52;;;11.40;99.90;;;;;;4915228;29;20209;-67
2023/03/31 11:29:50;;;;;;;1.13;1.10;;;11.30;99.90;;;;;;4913621;29;20211;-68
2023/03/31 11:32:33;;;;;;;5.47;1.30;;;11.20;99.90;;;;;;4915092;29;20327;-68
2023/03/31 11:35:13;;;;;;;1.45;0.77;;;11.20;99.90;;;;;;4913953;29;20191;-67
2023/03/31 11:38:00;;;;;;;1.05;0.68;;;11.10;99.90;;;;;;4914772;29;20289;-68
2023/03/31 11:40:39;;;;;;;1.48;1.38;;;11.10;99.90;;;;;;4913650;29;20230;-69
2023/03/31 11:43:10;;;;;;;0.57;0.57;;;11.10;99.90;;;;;;4906403;29;20215;-68
2023/03/31 11:45:44;;;;;;;3.00;0.85;;;11.10;99.90;;;;;;4914152;29;20367;-69
2023/03/31 11:48:18;;;;;;;0.40;0.40;;;11.10;99.90;;;;;;4915049;29;20686;-69
2023/03/31 11:50:47;;;;;;;0.25;0.25;;;11.00;99.90;;;;;;4913070;29;20237;-63
2023/03/31 11:53:19;;;;;;;2.47;0.70;;;11.10;99.90;;;;;;4913758;29;20206;-70
2023/03/31 11:55:49;;;;;;;0.95;0.50;;;11.20;99.90;;;;;;4914560;29;20229;-69
2023/03/31 11:58:20;;;;;;;0.90;0.90;;;11.20;99.90;;;;;;4908226;29;20318;-68
2023/03/31 12:00:55;;;;;;;3.28;3.05;;;11.20;99.90;;;;;;4913823;29;20238;-68
2023/03/31 12:03:27;;;;;;;2.15;0.88;;;11.30;99.90;;;;;;4913860;29;20312;-67
2023/03/31 12:05:58;;;;;;;1.00;1.00;;;11.30;99.90;;;;;;4912421;29;20210;-68
2023/03/31 12:08:30;;;;;;;0.75;0.75;;;11.30;99.90;;;;;;4912022;29;20214;-68
2023/03/31 12:11:04;;;;;;;1.05;0.60;;;11.40;99.90;;;;;;4911561;29;20336;-68
2023/03/31 12:13:43;;;;;;;2.80;0.83;;;11.40;99.90;;;;;;4909000;29;20217;-69
2023/03/31 12:16:15;;;;;;;1.17;1.17;;;11.50;99.90;;;;;;4907558;29;20530;-68
2023/03/31 12:18:47;;;;;;;1.17;1.10;;;11.60;99.90;;;;;;4911555;29;20831;-69
2023/03/31 12:21:13;;;;;;;0.90;0.90;;;11.60;99.90;;;;;;4908608;29;20506;-69
2023/03/31 12:23:44;;;;;;;2.95;1.33;;;11.50;99.90;;;;;;4909289;29;20860;-68
2023/03/31 12:26:23;;;;;;;1.13;1.07;;;11.60;99.90;;;;;;4913385;29;20241;-66
2023/03/31 12:28:55;;;;;;;0.93;0.93;;;11.70;99.90;;;;;;4912344;29;20502;-64
2023/03/31 12:31:25;;;;;;;1.67;1.57;;;11.80;99.90;;;;;;4914297;29;20486;-65
2023/03/31 12:33:56;;;;;;;1.40;1.40;;;11.80;99.90;;;;;;4911056;29;20474;-65
2023/03/31 12:36:37;;;;;;;1.77;1.20;;;11.90;99.90;;;;;;4914456;29;20455;-66
2023/03/31 12:39:20;;;;;;;1.50;1.40;;;12.00;99.90;;;;;;4911813;29;20478;-65
2023/03/31 12:42:04;;;;;;;1.10;1.10;;;12.00;99.90;;;;;;4912130;29;20514;-65
2023/03/31 12:44:43;;;;;;;1.07;1.07;;;12.10;99.90;;;;;;4907401;29;21082;-67
2023/03/31 12:47:27;;;;;;;1.00;0.83;;;12.10;99.90;;;;;;4914076;29;20477;-68
2023/03/31 12:50:20;;;;;;;1.60;1.50;;;12.10;99.90;;;;;;4912725;29;20492;-66
2023/03/31 12:52:55;;;;;;;1.40;1.40;;;12.10;99.90;;;;;;4911848;29;20751;-65
2023/03/31 12:55:35;;;;;;;0.53;0.53;;;12.20;99.90;;;;;;4912557;29;20477;-66
2023/03/31 12:58:35;;;;;;;1.23;1.23;;;12.10;99.90;;;;;;4905958;29;20465;-67
2023/03/31 13:01:05;;;;;;;0.93;0.93;;;12.00;99.90;;;;;;4911882;29;20529;-66
2023/03/31 13:03:44;;;;;;;1.17;1.10;;;12.00;99.90;;;;;;4918081;29;20496;-66
2023/03/31 13:06:12;;;;;;;1.57;0.57;;;12.00;99.90;;;;;;4914167;29;20479;-67
2023/03/31 13:08:54;;;;;;;3.57;0.87;;;12.10;99.90;;;;;;4912116;29;20483;-63
2023/03/31 13:11:23;;;;;;;1.10;1.00;;;12.10;99.90;;;;;;4916330;29;20521;-67
2023/03/31 13:14:00;;;;;;;0.57;0.57;;;12.20;99.90;;;;;;4913975;29;20481;-67
2023/03/31 13:16:27;;;;;;;1.37;1.37;;;12.30;99.90;;;;;;4917817;29;20486;-67
2023/03/31 13:18:56;;;;;;;1.90;1.03;;;12.40;99.90;;;;;;4915986;29;20462;-66
2023/03/31 13:21:23;;;;;;;1.00;1.00;;;12.50;99.90;;;;;;4914987;29;20577;-68
2023/03/31 13:23:52;;;;;;;5.03;1.03;;;12.60;99.90;;;;;;4914119;29;20939;-68
2023/03/31 13:26:38;;;;;;;1.30;0.77;;;12.60;99.90;;;;;;4917221;29;20478;-68
2023/03/31 13:29:20;;;;;;;0.30;0.30;;;12.50;99.90;;;;;;4914079;29;20471;-68
2023/03/31 13:32:06;;;;;;;1.17;1.17;;;12.50;99.90;;;;;;4909799;29;20486;-68
2023/03/31 13:34:40;;;;;;;0.73;0.73;;;12.50;99.90;;;;;;4899184;29;20476;-68
2023/03/31 13:37:18;;;;;;;0.70;0.70;;;12.50;99.90;;;;;;4909860;29;20458;-67
2023/03/31 13:40:21;;;;;;;0.50;0.50;;;12.40;99.90;;;;;;4915540;29;20482;-67
2023/03/31 13:43:09;;;;;;;0.80;0.80;;;12.40;99.90;;;;;;4915413;29;20566;-67
2023/03/31 13:45:51;;;;;;;1.67;0.73;;;12.40;99.90;;;;;;4910519;29;20970;-68
2023/03/31 13:48:29;;;;;;;4.27;0.83;;;12.60;99.90;;;;;;4910981;29;20463;-68
2023/03/31 13:51:19;;;;;;;1.00;1.00;;;12.70;99.90;;;;;;4915903;29;20961;-67
2023/03/31 13:54:15;;;;;;;4.13;1.73;;;12.70;99.90;;;;;;4913823;29;20525;-68
2023/03/31 13:56:58;;;;;;;0.60;0.60;;;12.80;99.90;;;;;;4906379;29;20466;-68
2023/03/31 14:00:13;;;;;;;0.90;0.90;;;12.90;99.90;;;;;;4914923;29;20501;-68
2023/03/31 14:02:53;;;;;;;1.17;1.17;;;13.00;99.90;;;;;;4915115;29;20988;-68
2023/03/31 14:05:32;;;;;;;0.53;0.53;;;13.10;99.90;;;;;;4903926;29;20479;-69
2023/03/31 14:08:05;;;;;;;1.87;0.90;;;13.10;99.90;;;;;;4912196;29;20481;-68
2023/03/31 14:10:35;;;;;;;0.50;0.50;;;13.10;99.90;;;;;;4910790;29;20875;-68
2023/03/31 14:13:07;;;;;;;0.40;0.40;;;13.10;99.90;;;;;;4911493;29;20470;-67
2023/03/31 14:15:35;;;;;;;3.13;1.17;;;13.10;99.90;;;;;;4914649;29;20475;-68
2023/03/31 14:18:03;;;;;;;0.50;0.50;;;13.10;99.90;;;;;;4916049;29;20526;-68
2023/03/31 14:20:36;;;;;;;0.50;0.50;;;13.00;99.90;;;;;;4905515;29;20650;-68
2023/03/31 14:23:17;;;;;;;1.63;1.20;;;13.10;99.90;;;;;;4921722;29;20527;-67
2023/03/31 14:25:50;;;;;;;0.60;0.60;;;13.10;99.90;;;;;;4926632;29;20470;-68
2023/03/31 14:28:31;;;;;;;0.37;0.37;;;13.00;99.90;;;;;;4929029;29;20462;-68
2023/03/31 14:31:11;;;;;;;0.47;0.40;;;13.00;99.90;;;;;;4926642;29;20518;-68
2023/03/31 14:33:47;;;;;;;0.50;0.50;;;13.10;99.90;;;;;;4924706;29;20967;-68
2023/03/31 14:36:24;;;;;;;0.60;0.60;;;13.10;99.90;;;;;;4918518;29;20537;-66
2023/03/31 14:38:52;;;;;;;0.90;0.90;;;13.20;99.90;;;;;;4922750;29;20517;-69
2023/03/31 14:41:28;;;;;;;0.87;0.87;;;13.20;99.90;;;;;;4924173;29;20491;-70
2023/03/31 14:43:57;;;;;;;0.80;0.80;;;13.30;99.90;;;;;;4914613;29;21038;-69
2023/03/31 14:46:24;;;;;;;0.47;0.43;;;13.30;99.90;;;;;;4912558;29;20537;-69
2023/03/31 14:48:51;;;;;;;0.50;0.50;;;13.30;99.90;;;;;;4914556;29;20566;-69
2023/03/31 14:51:24;;;;;;;0.50;0.40;;;13.20;99.90;;;;;;4915684;29;20497;-68
2023/03/31 14:53:57;;;;;;;1.60;0.87;;;13.10;99.90;;;;;;4912606;29;20475;-69
2023/03/31 14:56:32;;;;;;;0.70;0.70;;;13.10;99.90;;;;;;4909676;29;20483;-70
2023/03/31 14:59:00;;;;;;;0.40;0.40;;;13.10;99.90;;;;;;4912864;29;20462;-69
2023/03/31 15:01:34;;;;;;;0.40;0.40;;;13.00;99.90;;;;;;4913402;29;20490;-69
2023/03/31 15:04:05;;;;;;;0.40;0.40;;;13.10;99.90;;;;;;4912821;29;20493;-69
2023/03/31 15:06:32;;;;;;;2.00;0.87;;;13.10;99.90;;;;;;4910724;29;20481;-70
2023/03/31 15:09:03;;;;;;;0.40;0.40;;;13.10;99.90;;;;;;4910413;29;20472;-69
2023/03/31 15:11:31;;;;;;;0.50;0.50;;;13.10;99.90;;;;;;4913961;29;20504;-69
2023/03/31 15:13:59;;;;;;;0.30;0.30;;;13.10;99.90;;;;;;4906043;29;20454;-69
2023/03/31 15:16:33;;;;;;;0.60;0.60;;;13.10;99.90;;;;;;4912344;29;20493;-69
2023/03/31 15:19:03;;;;;;;0.73;0.73;;;13.00;99.90;;;;;;4914458;29;20467;-69
2023/03/31 15:21:32;;;;;;;0.50;0.50;;;13.00;99.90;;;;;;4911778;29;20525;-69
2023/03/31 15:24:00;;;;;;;0.43;0.43;;;12.90;99.90;;;;;;4913536;29;20487;-69
2023/03/31 15:26:31;;;;;;;1.23;0.80;;;12.90;99.90;;;;;;4912106;29;20474;-69
2023/03/31 15:29:03;;;;;;;0.50;0.50;;;12.80;99.90;;;;;;4914208;29;20459;-70
2023/03/31 15:31:30;;;;;;;0.40;0.40;;;12.80;99.90;;;;;;4913660;29;20491;-70
2023/03/31 15:33:57;;;;;;;0.60;0.60;;;12.70;99.90;;;;;;4913027;29;20907;-69
2023/03/31 15:36:26;;;;;;;0.83;0.73;;;12.60;99.90;;;;;;4912130;29;20557;-69
2023/03/31 15:38:57;;;;;;;0.57;0.57;;;12.50;99.90;;;;;;4912353;29;20838;-69
2023/03/31 15:41:30;;;;;;;0.40;0.40;;;12.40;99.90;;;;;;4897888;29;20531;-69
2023/03/31 15:44:04;;;;;;;1.03;0.40;;;12.30;99.90;;;;;;4907210;29;20489;-69
2023/03/31 15:46:50;;;;;;;0.70;0.70;;;12.20;99.90;;;;;;4911599;29;20494;-69
2023/03/31 15:49:20;;;;;;;2.10;0.53;;;12.20;99.90;;;;;;4903099;29;20526;-68
2023/03/31 15:51:47;;;;;;;2.83;1.07;;;12.30;99.90;;;;;;4909470;29;20490;-69
2023/03/31 15:54:30;;;;;;;1.20;0.63;;;12.40;99.90;;;;;;4912788;29;20462;-68
2023/03/31 15:57:01;;;;;;;0.60;0.60;;;12.50;99.90;;;;;;4913032;29;20497;-69
2023/03/31 15:59:29;;;;;;;1.33;0.73;;;12.60;99.90;;;;;;4913422;29;20466;-69
2023/03/31 16:01:58;;;;;;;0.70;0.70;;;12.60;99.90;;;;;;4908153;29;20866;-69
2023/03/31 16:04:30;;;;;;;4.43;1.63;;;12.60;99.90;;;;;;4912874;29;20487;-69
2023/03/31 16:07:04;;;;;;;3.10;0.83;;;12.60;99.90;;;;;;4911241;29;20473;-68
2023/03/31 16:09:41;;;;;;;0.80;0.80;;;12.60;99.90;;;;;;4910923;29;20501;-68
2023/03/31 16:12:16;;;;;;;1.47;0.57;;;12.60;99.90;;;;;;4913653;29;20482;-68
2023/03/31 16:14:48;;;;;;;0.50;0.50;;;12.50;99.90;;;;;;4911734;29;20472;-68
2023/03/31 16:17:26;;;;;;;0.70;0.70;;;12.50;99.90;;;;;;4913644;29;20462;-68
2023/03/31 16:19:57;;;;;;;0.77;0.77;;;12.50;99.90;;;;;;4910587;29;20462;-68
2023/03/31 16:22:30;;;;;;;0.77;0.77;;;12.50;99.90;;;;;;4912629;29;20498;-68
2023/03/31 16:24:57;;;;;;;0.73;0.73;;;12.60;99.90;;;;;;4910169;29;21205;-68
2023/03/31 16:27:26;;;;;;;0.60;0.60;;;12.50;99.90;;;;;;4914186;29;20838;-68
2023/03/31 16:30:06;;;;;;;4.63;0.67;;;12.40;99.90;;;;;;4914945;29;20494;-68
2023/03/31 16:32:33;;;;;;;0.80;0.80;;;12.40;99.90;;;;;;4917709;29;20485;-68
2023/03/31 16:35:01;;;;;;;1.20;1.00;;;12.30;99.90;;;;;;4916055;29;20837;-69
2023/03/31 16:37:29;;;;;;;0.67;0.67;;;12.40;99.90;;;;;;4918878;29;20496;-69
2023/03/31 16:39:56;;;;;;;0.93;0.90;;;12.30;99.90;;;;;;4916481;29;20479;-68
2023/03/31 16:42:25;;;;;;;1.00;1.00;;;12.30;99.90;;;;;;4916510;29;20490;-69
2023/03/31 16:44:52;;;;;;;0.90;0.90;;;12.30;99.90;;;;;;4911117;29;20525;-69
2023/03/31 16:47:19;;;;;;;0.53;0.53;;;12.30;99.90;;;;;;4916844;29;20485;-69
2023/03/31 16:49:46;;;;;;;0.47;0.47;;;12.20;99.90;;;;;;4912988;29;20498;-69
2023/03/31 16:52:12;;;;;;;4.32;0.60;;;12.20;99.90;;;;;;4915259;29;20493;-69
2023/03/31 16:54:39;;;;;;;1.23;0.80;;;12.20;99.90;;;;;;4913934;29;20223;-69
2023/03/31 16:57:07;;;;;;;10.40;0.97;;;12.20;99.90;;;;;;4914374;29;20496;-69
2023/03/31 16:59:35;;;;;;;1.23;0.90;;;12.20;99.90;;;;;;4913465;29;20926;-69
2023/03/31 17:02:02;;;;;;;1.23;1.23;;;12.10;99.90;;;;;;4912847;29;20493;-69
2023/03/31 17:04:29;;;;;;;2.33;1.33;;;12.10;99.90;;;;;;4913397;29;20494;-69
2023/03/31 17:06:55;;;;;;;0.87;0.87;;;12.10;99.90;;;;;;4914456;29;20482;-69
2023/03/31 17:09:22;;;;;;;1.30;1.30;;;12.10;99.90;;;;;;4912658;29;20474;-69
2023/03/31 17:11:49;;;;;;;1.17;1.17;;;12.10;99.90;;;;;;4915794;29;20525;-69